createdAt,value
2018-02-01T00:01:17.091Z,64.03
2018-02-01T00:03:47.306Z,64.30
2018-02-01T00:06:17.118Z,64.04
2018-02-01T00:08:49.531Z,64.39
2018-02-01T00:11:24.075Z,64.64
2018-02-01T00:16:33.177Z,64.03
2018-02-01T00:19:05.087Z,64.68
2018-02-01T00:21:37.581Z,63.83
2018-02-01T00:24:10.898Z,63.45
2018-02-01T00:26:44.762Z,64.13
2018-02-01T00:31:56.129Z,64.42
2018-02-01T00:34:31.708Z,63.90
2018-02-01T00:37:07.072Z,64.97
2018-02-01T00:39:41.984Z,65.03
2018-02-01T00:44:53.553Z,65.38
2018-02-01T00:47:27.712Z,66.06
2018-02-01T00:52:38.769Z,66.20
2018-02-01T00:55:07.976Z,66.92
2018-02-01T00:57:36.997Z,67.18
2018-02-01T01:00:06.040Z,67.55
2018-02-01T01:02:35.073Z,67.24
2018-02-01T01:07:39.354Z,67.99
2018-02-01T01:10:08.396Z,68.34
2018-02-01T01:12:37.427Z,68.85
2018-02-01T01:15:06.452Z,69.26
2018-02-01T01:17:35.486Z,69.72
2018-02-01T01:20:04.526Z,69.95
2018-02-01T01:22:33.581Z,70.50
2018-02-01T01:25:02.671Z,70.40
2018-02-01T01:27:31.715Z,70.47
2018-02-01T01:30:00.753Z,71.06
2018-02-01T01:32:29.787Z,70.98
2018-02-01T01:34:58.816Z,70.75
2018-02-01T01:37:27.845Z,71.26
2018-02-01T01:39:57.015Z,71.04
2018-02-01T01:42:26.034Z,70.42
2018-02-01T01:44:55.042Z,71.67
2018-02-01T01:47:24.069Z,72.14
2018-02-01T01:49:53.103Z,72.05
2018-02-01T01:52:23.953Z,72.08
2018-02-01T01:54:52.984Z,72.16
2018-02-01T01:59:57.211Z,72.11
2018-02-01T02:02:26.236Z,72.76
2018-02-01T02:04:55.261Z,72.10
2018-02-01T02:07:24.382Z,72.25
2018-02-01T02:09:53.397Z,72.40
2018-02-01T02:12:22.429Z,72.52
2018-02-01T02:14:51.452Z,72.40
2018-02-01T02:19:55.729Z,72.67
2018-02-01T02:22:24.768Z,72.86
2018-02-01T02:24:53.790Z,73.30
2018-02-01T02:29:58.100Z,73.91
2018-02-01T02:32:27.133Z,73.73
2018-02-01T02:34:56.157Z,73.60
2018-02-01T02:37:25.201Z,74.11
2018-02-01T02:39:54.246Z,74.16
2018-02-01T02:42:23.286Z,74.22
2018-02-01T02:44:52.313Z,74.41
2018-02-01T02:49:56.592Z,74.17
2018-02-01T02:52:25.629Z,74.37
2018-02-01T02:54:54.677Z,74.90
2018-02-01T02:57:23.713Z,74.70
2018-02-01T02:59:52.741Z,75.00
2018-02-01T03:02:21.779Z,74.75
2018-02-01T03:04:50.833Z,74.53
2018-02-01T03:07:19.876Z,74.80
2018-02-01T03:09:48.905Z,74.95
2018-02-01T03:12:17.942Z,75.20
2018-02-01T03:17:22.594Z,75.14
2018-02-01T03:19:51.633Z,74.55
2018-02-01T03:22:20.682Z,75.11
2018-02-01T03:24:49.709Z,74.39
2018-02-01T03:27:18.733Z,74.73
2018-02-01T03:29:47.759Z,74.92
2018-02-01T03:32:17.053Z,75.52
2018-02-01T03:37:21.256Z,75.16
2018-02-01T03:39:50.307Z,75.53
2018-02-01T03:42:19.337Z,74.58
2018-02-01T03:44:48.370Z,74.55
2018-02-01T03:47:17.401Z,74.61
2018-02-01T03:49:46.438Z,74.59
2018-02-01T03:52:15.473Z,74.69
2018-02-01T03:54:44.533Z,74.68
2018-02-01T03:57:13.556Z,75.98
2018-02-01T03:59:42.588Z,75.58
2018-02-01T04:02:11.612Z,75.04
2018-02-01T04:04:40.648Z,75.73
2018-02-01T04:07:09.682Z,76.37
2018-02-01T04:09:38.901Z,76.70
2018-02-01T04:12:07.928Z,76.52
2018-02-01T04:14:36.962Z,77.25
2018-02-01T04:17:05.984Z,77.04
2018-02-01T04:19:35.023Z,77.03
2018-02-01T04:22:04.057Z,77.37
2018-02-01T04:24:33.110Z,77.22
2018-02-01T04:27:02.143Z,76.51
2018-02-01T04:29:31.169Z,77.05
2018-02-01T04:32:01.135Z,76.96
2018-02-01T04:34:30.183Z,77.05
2018-02-01T04:36:59.223Z,77.33
2018-02-01T04:39:28.253Z,77.81
2018-02-01T04:41:57.345Z,78.44
2018-02-01T04:44:26.381Z,78.89
2018-02-01T04:46:55.437Z,79.47
2018-02-01T04:49:24.481Z,79.86
2018-02-01T04:51:53.501Z,79.95
2018-02-01T04:54:22.592Z,80.81
2018-02-01T04:56:51.640Z,80.86
2018-02-01T04:59:20.674Z,81.42
2018-02-01T05:01:49.705Z,82.38
2018-02-01T05:04:18.811Z,82.08
2018-02-01T05:06:47.807Z,82.50
2018-02-01T05:09:16.837Z,82.67
2018-02-01T05:11:45.864Z,81.98
2018-02-01T05:14:14.903Z,82.54
2018-02-01T05:16:43.957Z,83.39
2018-02-01T05:19:12.994Z,83.61
2018-02-01T05:21:42.037Z,83.92
2018-02-01T05:24:11.100Z,83.71
2018-02-01T05:26:40.140Z,84.65
2018-02-01T05:29:09.200Z,84.55
2018-02-01T05:31:38.227Z,84.67
2018-02-01T05:34:07.261Z,85.18
2018-02-01T05:36:36.296Z,85.94
2018-02-01T05:39:05.345Z,87.07
2018-02-01T05:41:34.373Z,86.39
2018-02-01T05:44:03.413Z,87.99
2018-02-01T05:46:32.457Z,88.33
2018-02-01T05:49:01.473Z,88.54
2018-02-01T05:54:05.744Z,88.93
2018-02-01T05:56:34.777Z,89.10
2018-02-01T05:59:03.822Z,88.69
2018-02-01T06:01:32.853Z,90.37
2018-02-01T06:04:01.892Z,91.05
2018-02-01T06:06:30.917Z,89.83
2018-02-01T06:08:59.949Z,89.70
2018-02-01T06:11:29.017Z,89.57
2018-02-01T06:13:58.051Z,90.19
2018-02-01T06:16:27.076Z,90.66
2018-02-01T06:18:56.107Z,91.35
2018-02-01T06:21:25.157Z,90.90
2018-02-01T06:26:29.373Z,90.38
2018-02-01T06:28:58.425Z,91.10
2018-02-01T06:31:27.534Z,92.14
2018-02-01T06:33:56.566Z,91.63
2018-02-01T06:36:25.598Z,93.16
2018-02-01T06:38:54.643Z,93.67
2018-02-01T06:41:23.697Z,93.52
2018-02-01T06:43:52.742Z,91.75
2018-02-01T06:46:21.777Z,90.77
2018-02-01T06:48:50.821Z,91.67
2018-02-01T06:53:55.097Z,91.41
2018-02-01T06:56:24.135Z,92.16
2018-02-01T06:58:53.173Z,90.71
2018-02-01T07:01:34.899Z,91.26
2018-02-01T07:04:04.874Z,92.87
2018-02-01T07:06:33.903Z,91.98
2018-02-01T07:09:02.958Z,92.19
2018-02-01T07:14:07.233Z,92.15
2018-02-01T07:16:36.273Z,92.80
2018-02-01T07:19:05.313Z,93.88
2018-02-01T07:21:34.337Z,93.93
2018-02-01T07:24:03.356Z,94.08
2018-02-01T07:26:33.325Z,94.53
2018-02-01T07:29:02.384Z,94.23
2018-02-01T07:31:31.422Z,94.21
2018-02-01T07:34:00.458Z,94.10
2018-02-01T07:36:29.511Z,93.86
2018-02-01T07:38:59.454Z,95.19
2018-02-01T07:41:28.489Z,94.75
2018-02-01T07:43:57.547Z,95.10
2018-02-01T07:46:36.529Z,95.60
2018-02-01T07:49:05.573Z,95.65
2018-02-01T07:51:34.604Z,94.85
2018-02-01T07:54:03.649Z,94.12
2018-02-01T07:59:07.941Z,95.26
2018-02-01T08:01:37.009Z,95.63
2018-02-01T08:06:42.858Z,95.24
2018-02-01T08:09:12.401Z,94.84
2018-02-01T08:11:41.478Z,93.46
2018-02-01T08:14:10.496Z,93.82
2018-02-01T08:16:39.545Z,95.13
2018-02-01T08:19:08.577Z,94.75
2018-02-01T08:21:37.617Z,93.65
2018-02-01T08:26:41.840Z,92.85
2018-02-01T08:29:10.865Z,94.09
2018-02-01T08:31:39.917Z,94.75
2018-02-01T08:34:09.569Z,95.16
2018-02-01T08:36:38.596Z,96.23
2018-02-01T08:41:42.874Z,95.59
2018-02-01T08:44:11.909Z,95.59
2018-02-01T08:46:40.943Z,95.06
2018-02-01T08:49:09.966Z,95.56
2018-02-01T08:51:39.005Z,96.28
2018-02-01T08:54:18.869Z,95.98
2018-02-01T08:56:47.904Z,95.36
2018-02-01T08:59:16.956Z,94.97
2018-02-01T09:01:45.992Z,95.20
2018-02-01T09:04:15.088Z,95.13
2018-02-01T09:06:44.086Z,95.49
2018-02-01T09:09:13.136Z,95.35
2018-02-01T09:11:42.159Z,96.52
2018-02-01T09:14:11.235Z,96.98
2018-02-01T09:16:40.257Z,96.74
2018-02-01T09:21:44.536Z,95.53
2018-02-01T09:24:13.607Z,96.31
2018-02-01T09:29:17.868Z,96.15
2018-02-01T09:31:46.901Z,96.41
2018-02-01T09:34:15.949Z,96.96
2018-02-01T09:36:44.989Z,96.84
2018-02-01T09:39:14.038Z,96.46
2018-02-01T09:44:18.312Z,96.81
2018-02-01T09:49:22.543Z,96.20
2018-02-01T09:51:51.576Z,96.67
2018-02-01T09:54:20.649Z,96.61
2018-02-01T09:56:50.639Z,96.86
2018-02-01T09:59:19.638Z,97.07
2018-02-01T10:01:48.753Z,97.04
2018-02-01T10:04:17.790Z,97.09
2018-02-01T10:06:46.825Z,97.27
2018-02-01T10:11:51.097Z,97.70
2018-02-01T10:14:20.123Z,98.01
2018-02-01T10:16:49.159Z,97.95
2018-02-01T10:19:18.184Z,97.89
2018-02-01T10:21:47.229Z,97.60
2018-02-01T10:24:16.257Z,96.84
2018-02-01T10:26:45.311Z,97.16
2018-02-01T10:29:15.053Z,97.19
2018-02-01T10:31:44.082Z,96.96
2018-02-01T10:34:13.930Z,97.34
2018-02-01T10:36:42.984Z,97.70
2018-02-01T10:39:12.037Z,97.81
2018-02-01T10:41:41.065Z,97.97
2018-02-01T10:44:10.091Z,97.61
2018-02-01T10:46:39.124Z,97.33
2018-02-01T10:49:08.171Z,97.70
2018-02-01T10:54:12.446Z,97.45
2018-02-01T10:56:41.685Z,97.16
2018-02-01T10:59:10.713Z,97.14
2018-02-01T11:01:39.718Z,97.56
2018-02-01T11:04:08.747Z,97.46
2018-02-01T11:06:37.785Z,97.30
2018-02-01T11:09:06.818Z,97.09
2018-02-01T11:11:35.872Z,97.10
2018-02-01T11:14:04.926Z,97.24
2018-02-01T11:16:34.058Z,97.30
2018-02-01T11:19:03.176Z,97.46
2018-02-01T11:21:32.146Z,97.60
2018-02-01T11:24:01.199Z,97.50
2018-02-01T11:26:30.232Z,97.96
2018-02-01T11:28:59.263Z,96.80
2018-02-01T11:31:28.291Z,95.48
2018-02-01T11:33:57.321Z,95.03
2018-02-01T11:36:27.000Z,94.58
2018-02-01T11:41:31.265Z,94.80
2018-02-01T11:44:00.291Z,95.70
2018-02-01T11:46:29.334Z,96.00
2018-02-01T11:48:58.365Z,96.60
2018-02-01T11:51:27.392Z,97.03
2018-02-01T11:53:56.430Z,97.38
2018-02-01T11:56:25.474Z,97.60
2018-02-01T11:58:54.503Z,98.08
2018-02-01T12:01:23.537Z,97.82
2018-02-01T12:03:52.573Z,97.79
2018-02-01T12:06:21.623Z,97.31
2018-02-01T12:11:25.920Z,97.11
2018-02-01T12:13:54.981Z,97.04
2018-02-01T12:16:24.022Z,97.50
2018-02-01T12:18:53.069Z,97.71
2018-02-01T12:21:22.163Z,97.66
2018-02-01T12:23:51.189Z,97.89
2018-02-01T12:26:20.229Z,97.97
2018-02-01T12:28:49.280Z,98.20
2018-02-01T12:31:18.322Z,97.87
2018-02-01T12:33:48.325Z,96.84
2018-02-01T12:36:17.332Z,96.60
2018-02-01T12:38:46.377Z,96.54
2018-02-01T12:41:15.404Z,95.84
2018-02-01T12:43:45.193Z,96.02
2018-02-01T12:46:14.233Z,96.18
2018-02-01T12:48:44.271Z,96.62
2018-02-01T12:51:13.297Z,96.99
2018-02-01T12:53:44.151Z,97.28
2018-02-01T12:56:13.156Z,97.54
2018-02-01T12:58:43.572Z,97.23
2018-02-01T13:01:12.579Z,97.88
2018-02-01T13:03:41.633Z,97.28
2018-02-01T13:06:10.680Z,97.15
2018-02-01T13:08:39.721Z,97.37
2018-02-01T13:11:43.255Z,98.44
2018-02-01T13:14:12.324Z,98.12
2018-02-01T13:16:41.456Z,98.02
2018-02-01T13:19:10.513Z,98.02
2018-02-01T13:21:39.556Z,97.59
2018-02-01T13:24:08.582Z,98.00
2018-02-01T13:29:12.854Z,97.36
2018-02-01T13:31:42.429Z,97.58
2018-02-01T13:34:11.497Z,97.43
2018-02-01T13:36:40.547Z,97.38
2018-02-01T13:39:09.579Z,97.48
2018-02-01T13:41:38.625Z,97.45
2018-02-01T13:44:07.654Z,97.74
2018-02-01T13:46:36.699Z,97.89
2018-02-01T13:49:05.737Z,98.00
2018-02-01T13:51:34.783Z,97.65
2018-02-01T13:54:03.836Z,97.02
2018-02-01T13:56:32.893Z,96.81
2018-02-01T13:59:01.940Z,96.79
2018-02-01T14:01:30.996Z,96.75
2018-02-01T14:04:00.028Z,96.84
2018-02-01T14:06:29.070Z,97.33
2018-02-01T14:08:58.105Z,97.26
2018-02-01T14:11:27.136Z,97.30
2018-02-01T14:13:56.174Z,96.36
2018-02-01T14:16:25.258Z,96.51
2018-02-01T14:18:54.290Z,96.67
2018-02-01T14:21:23.314Z,96.49
2018-02-01T14:23:52.397Z,96.17
2018-02-01T14:26:21.425Z,96.60
2018-02-01T14:28:50.460Z,96.73
2018-02-01T14:31:19.489Z,96.96
2018-02-01T14:33:48.535Z,96.94
2018-02-01T14:36:17.585Z,96.53
2018-02-01T14:38:47.437Z,96.57
2018-02-01T14:41:16.463Z,95.86
2018-02-01T14:43:45.527Z,96.01
2018-02-01T14:46:15.571Z,96.13
2018-02-01T14:48:44.668Z,96.41
2018-02-01T14:51:14.703Z,96.33
2018-02-01T14:53:49.168Z,96.88
2018-02-01T14:56:22.268Z,96.29
2018-02-01T14:58:56.986Z,96.49
2018-02-01T15:01:28.401Z,97.17
2018-02-01T15:04:01.660Z,97.55
2018-02-01T15:06:35.423Z,97.67
2018-02-01T15:09:08.523Z,97.14
2018-02-01T15:11:42.774Z,97.31
2018-02-01T15:14:15.932Z,96.86
2018-02-01T15:16:49.321Z,97.18
2018-02-01T15:19:22.815Z,97.53
2018-02-01T15:21:56.484Z,97.75
2018-02-01T15:24:28.930Z,97.94
2018-02-01T15:27:02.517Z,97.82
2018-02-01T15:29:35.942Z,98.05
2018-02-01T15:32:09.429Z,97.92
2018-02-01T15:34:42.180Z,97.87
2018-02-01T15:37:15.403Z,97.98
2018-02-01T15:39:49.125Z,98.00
2018-02-01T15:42:22.095Z,98.18
2018-02-01T15:44:55.316Z,98.24
2018-02-01T15:47:29.502Z,98.11
2018-02-01T15:50:02.436Z,97.86
2018-02-01T15:52:35.636Z,97.92
2018-02-01T15:55:09.015Z,97.85
2018-02-01T15:57:42.263Z,97.87
2018-02-01T16:02:50.787Z,98.08
2018-02-01T16:10:39.726Z,98.14
2018-02-01T16:13:11.726Z,98.21
2018-02-01T16:15:44.690Z,98.25
2018-02-01T16:18:18.606Z,98.48
2018-02-01T16:20:51.107Z,98.58
2018-02-01T16:23:24.331Z,98.38
2018-02-01T16:25:57.264Z,98.62
2018-02-01T16:28:30.510Z,98.18
2018-02-01T16:31:04.086Z,98.28
2018-02-01T16:36:12.566Z,98.20
2018-02-01T16:38:46.534Z,98.27
2018-02-01T16:41:19.676Z,98.45
2018-02-01T16:43:53.295Z,97.06
2018-02-01T16:46:25.921Z,96.97
2018-02-01T16:48:59.671Z,96.30
2018-02-01T16:54:08.847Z,95.39
2018-02-01T16:56:40.315Z,95.83
2018-02-01T16:59:13.570Z,95.73
2018-02-01T17:01:46.468Z,95.49
2018-02-01T17:04:19.445Z,93.96
2018-02-01T17:06:48.441Z,93.40
2018-02-01T17:09:17.490Z,93.68
2018-02-01T17:11:46.528Z,93.70
2018-02-01T17:14:15.998Z,93.72
2018-02-01T17:16:45.087Z,93.62
2018-02-01T17:19:14.075Z,94.17
2018-02-01T17:21:43.184Z,93.77
2018-02-01T17:24:13.332Z,94.37
2018-02-01T17:26:42.372Z,94.20
2018-02-01T17:29:11.387Z,94.15
2018-02-01T17:31:40.421Z,94.64
2018-02-01T17:34:09.461Z,94.92
2018-02-01T17:36:38.499Z,94.91
2018-02-01T17:39:07.533Z,94.94
2018-02-01T17:41:36.560Z,95.59
2018-02-01T17:44:05.593Z,95.32
2018-02-01T17:46:34.627Z,95.41
2018-02-01T17:49:03.670Z,95.84
2018-02-01T17:51:32.703Z,94.78
2018-02-01T17:54:01.737Z,95.11
2018-02-01T17:56:30.789Z,95.39
2018-02-01T17:58:59.860Z,95.79
2018-02-01T18:01:28.862Z,96.12
2018-02-01T18:03:57.893Z,95.73
2018-02-01T18:06:26.944Z,95.45
2018-02-01T18:08:55.985Z,95.29
2018-02-01T18:11:25.009Z,95.46
2018-02-01T18:13:54.044Z,96.15
2018-02-01T18:16:23.076Z,96.63
2018-02-01T18:18:52.115Z,96.89
2018-02-01T18:21:25.342Z,97.17
2018-02-01T18:23:54.370Z,97.11
2018-02-01T18:26:23.425Z,97.26
2018-02-01T18:28:52.475Z,96.47
2018-02-01T18:31:21.513Z,96.61
2018-02-01T18:33:50.550Z,96.70
2018-02-01T18:36:19.630Z,96.88
2018-02-01T18:38:48.648Z,96.51
2018-02-01T18:41:17.695Z,95.63
2018-02-01T18:43:46.733Z,94.40
2018-02-01T18:46:16.450Z,94.80
2018-02-01T18:48:45.459Z,94.08
2018-02-01T18:51:15.373Z,94.82
2018-02-01T18:53:44.388Z,95.36
2018-02-01T18:56:14.438Z,95.53
2018-02-01T18:58:43.513Z,95.41
2018-02-01T19:01:13.987Z,95.63
2018-02-01T19:03:43.129Z,95.22
2018-02-01T19:06:12.658Z,95.44
2018-02-01T19:08:41.801Z,95.51
2018-02-01T19:11:10.845Z,95.27
2018-02-01T19:13:39.895Z,95.39
2018-02-01T19:18:44.233Z,95.51
2018-02-01T19:21:14.221Z,94.97
2018-02-01T19:23:43.284Z,95.03
2018-02-01T19:26:13.726Z,95.13
2018-02-01T19:28:42.737Z,94.56
2018-02-01T19:31:11.971Z,94.22
2018-02-01T19:33:40.984Z,93.61
2018-02-01T19:36:10.051Z,94.06
2018-02-01T19:38:39.083Z,93.50
2018-02-01T19:41:08.166Z,93.38
2018-02-01T19:43:38.118Z,93.00
2018-02-01T19:46:09.494Z,93.54
2018-02-01T19:48:38.535Z,92.77
2018-02-01T19:51:07.572Z,92.63
2018-02-01T19:53:36.628Z,92.83
2018-02-01T19:56:05.694Z,92.75
2018-02-01T19:58:34.710Z,92.78
2018-02-01T20:01:03.761Z,92.59
2018-02-01T20:03:32.805Z,92.57
2018-02-01T20:06:01.850Z,92.21
2018-02-01T20:08:31.808Z,92.51
2018-02-01T20:11:00.841Z,92.66
2018-02-01T20:13:29.889Z,92.35
2018-02-01T20:15:58.921Z,92.64
2018-02-01T20:18:28.609Z,92.42
2018-02-01T20:20:57.686Z,92.67
2018-02-01T20:23:26.726Z,92.07
2018-02-01T20:25:56.748Z,91.69
2018-02-01T20:28:32.830Z,90.79
2018-02-01T20:31:02.200Z,90.73
2018-02-01T20:33:31.270Z,90.62
2018-02-01T20:36:00.366Z,91.09
2018-02-01T20:38:29.541Z,91.42
2018-02-01T20:40:58.625Z,91.31
2018-02-01T20:43:27.701Z,90.74
2018-02-01T20:45:56.770Z,90.30
2018-02-01T20:48:26.738Z,89.87
2018-02-01T20:50:55.875Z,89.70
2018-02-01T20:53:24.928Z,88.90
2018-02-01T20:55:53.968Z,88.78
2018-02-01T20:58:23.368Z,88.57
2018-02-01T21:00:52.623Z,89.03
2018-02-01T21:03:21.920Z,88.76
2018-02-01T21:05:51.967Z,89.44
2018-02-01T21:08:21.078Z,89.32
2018-02-01T21:10:56.771Z,89.59
2018-02-01T21:13:25.803Z,90.11
2018-02-01T21:15:54.955Z,89.83
2018-02-01T21:18:23.989Z,90.30
2018-02-01T21:20:53.059Z,90.27
2018-02-01T21:23:22.068Z,90.41
2018-02-01T21:25:51.107Z,90.51
2018-02-01T21:28:20.267Z,90.36
2018-02-01T21:30:49.390Z,90.34
2018-02-01T21:33:18.619Z,90.46
2018-02-01T21:35:47.676Z,90.45
2018-02-01T21:38:17.212Z,90.54
2018-02-01T21:40:46.277Z,90.43
2018-02-01T21:43:15.316Z,89.88
2018-02-01T21:45:44.356Z,89.55
2018-02-01T21:48:13.380Z,89.26
2018-02-01T21:50:42.422Z,88.51
2018-02-01T21:53:15.133Z,88.74
2018-02-01T21:55:44.177Z,88.85
2018-02-01T21:58:13.683Z,88.11
2018-02-01T22:00:43.466Z,88.14
2018-02-01T22:03:12.501Z,88.34
2018-02-01T22:05:41.525Z,87.60
2018-02-01T22:08:10.586Z,87.58
2018-02-01T22:10:39.614Z,87.26
2018-02-01T22:13:09.320Z,86.65
2018-02-01T22:15:38.364Z,86.04
2018-02-01T22:18:07.403Z,85.21
2018-02-01T22:20:36.487Z,85.05
2018-02-01T22:23:05.481Z,84.84
2018-02-01T22:25:34.509Z,84.76
2018-02-01T22:28:03.551Z,84.99
2018-02-01T22:30:32.613Z,84.81
2018-02-01T22:33:01.645Z,85.18
2018-02-01T22:35:38.861Z,84.87
2018-02-01T22:38:07.853Z,85.08
2018-02-01T22:40:36.894Z,84.35
2018-02-01T22:43:05.988Z,84.38
2018-02-01T22:45:35.013Z,83.79
2018-02-01T22:48:42.557Z,83.47
2018-02-01T22:51:11.597Z,82.48
2018-02-01T22:53:40.649Z,82.46
2018-02-01T22:56:14.715Z,82.14
2018-02-01T22:58:43.752Z,81.98
2018-02-01T23:01:12.788Z,82.28
2018-02-01T23:06:17.018Z,82.61
2018-02-01T23:08:46.049Z,82.45
2018-02-01T23:11:15.100Z,81.82
2018-02-01T23:13:44.113Z,81.95
2018-02-01T23:18:48.367Z,82.32
2018-02-01T23:21:17.431Z,83.02
2018-02-01T23:23:46.445Z,83.12
2018-02-01T23:26:15.489Z,83.31
2018-02-01T23:28:44.522Z,83.42
2018-02-01T23:31:13.557Z,82.82
2018-02-01T23:33:42.608Z,82.68
2018-02-01T23:36:11.638Z,83.11
2018-02-01T23:38:40.673Z,82.59
2018-02-01T23:41:09.808Z,82.21
2018-02-01T23:43:38.817Z,81.84
2018-02-01T23:46:07.860Z,81.78
2018-02-01T23:48:36.907Z,81.52
2018-02-01T23:51:05.945Z,81.36
2018-02-01T23:53:34.973Z,81.07
2018-02-01T23:56:04.009Z,81.28
2018-02-01T23:58:38.447Z,81.30
